KLEW/LEW METAR and TAF weather

Enter ICAO airport designator
Station Type Date Time Source
KLEW METAR 2021/05/10 23:56 UTC NOAA

KLEW 102356Z AUTO 16008KT 10SM OVC100 13/04 A2985 RMK AO2 SLP115 T01280039 10178 20128 53015


Station Type Date Time Source
KLEW Decoded METAR 2021/05/10 23:56 UTC NOAA

Auburn-Lewiston, ME, United States (KLEW) 44-03N 070-17W
May 10, 2021 - 07:56 PM EDT / 2021.05.10 2356 UTC
Wind: from the SSE (160 degrees) at 9 MPH (8 KT):0
Visibility: 10 mile(s):0
Sky conditions: overcast
Temperature: 55.0 F (12.8 C)
Dew Point: 39.0 F (3.9 C)
Relative Humidity: 54%
Pressure (altimeter): 29.85 in. Hg (1010 hPa)
Pressure tendency: 0.04 inches (1.5 hPa) higher than three hours ago
ob: KLEW 102356Z AUTO 16008KT 10SM OVC100 13/04 A2985 RMK AO2 SLP115 T01280039 10178 20128 53015
cycle: 0

Station Type Date Time Source
KLEW TAF UTC NOAA

Error!

Example: see airport list